createdAt,value
2019-03-04T00:01:46.092Z,6.34
2019-03-04T00:04:18.570Z,6.46
2019-03-04T00:06:50.270Z,6.29
2019-03-04T00:09:22.009Z,6.00
2019-03-04T00:11:53.638Z,5.72
2019-03-04T00:14:25.379Z,5.32
2019-03-04T00:16:58.581Z,4.88
2019-03-04T00:19:30.420Z,4.51
2019-03-04T00:22:02.151Z,4.33
2019-03-04T00:24:34.782Z,4.21
2019-03-04T00:27:06.379Z,4.18
2019-03-04T00:29:37.965Z,4.22
2019-03-04T00:32:09.613Z,4.25
2019-03-04T00:34:44.510Z,4.29
2019-03-04T00:37:16.369Z,4.34
2019-03-04T00:39:48.417Z,4.40
2019-03-04T00:42:23.140Z,4.50
2019-03-04T00:44:54.890Z,4.67
2019-03-04T00:47:26.756Z,4.80
2019-03-04T00:49:58.561Z,4.92
2019-03-04T00:52:29.961Z,4.95
2019-03-04T00:55:05.071Z,4.95
2019-03-04T00:57:36.736Z,4.95
2019-03-04T01:00:13.713Z,4.89
2019-03-04T01:02:45.487Z,4.87
2019-03-04T01:05:17.363Z,4.76
2019-03-04T01:07:49.080Z,4.56
2019-03-04T01:10:21.070Z,4.34
2019-03-04T01:12:52.754Z,4.27
2019-03-04T01:15:25.254Z,4.17
2019-03-04T01:17:57.865Z,4.25
2019-03-04T01:20:29.612Z,4.28
2019-03-04T01:23:01.347Z,4.26
2019-03-04T01:25:33.409Z,4.40
2019-03-04T01:28:05.031Z,4.73
2019-03-04T01:30:39.255Z,5.04
2019-03-04T01:33:10.959Z,5.11
2019-03-04T01:35:43.533Z,5.37
2019-03-04T01:38:15.594Z,5.57
2019-03-04T01:40:47.346Z,5.71
2019-03-04T01:43:19.029Z,5.84
2019-03-04T01:45:50.850Z,5.91
2019-03-04T01:48:23.838Z,5.93
2019-03-04T01:50:55.411Z,5.93
2019-03-04T01:53:27.043Z,5.89
2019-03-04T01:55:59.038Z,5.80
2019-03-04T01:58:30.649Z,5.87
2019-03-04T02:01:02.570Z,5.84
2019-03-04T02:03:34.476Z,5.68
2019-03-04T02:06:06.145Z,5.45
2019-03-04T02:08:37.804Z,5.11
2019-03-04T02:11:09.473Z,4.70
2019-03-04T02:13:41.005Z,4.35
2019-03-04T02:16:12.905Z,4.07
2019-03-04T02:18:44.582Z,3.89
2019-03-04T02:21:16.295Z,3.92
2019-03-04T02:23:48.477Z,3.82
2019-03-04T02:26:27.359Z,3.94
2019-03-04T02:28:59.383Z,3.84
2019-03-04T02:31:31.013Z,3.88
2019-03-04T02:34:03.177Z,4.37
2019-03-04T02:36:34.960Z,4.62
2019-03-04T02:39:08.000Z,4.60
2019-03-04T02:41:39.715Z,4.70
2019-03-04T02:44:11.388Z,4.73
2019-03-04T02:46:43.153Z,4.68
2019-03-04T02:49:14.933Z,5.09
2019-03-04T02:51:46.818Z,5.48
2019-03-04T02:54:18.487Z,5.60
2019-03-04T02:56:50.093Z,5.69
2019-03-04T02:59:21.732Z,5.60
2019-03-04T03:01:53.289Z,5.63
2019-03-04T03:04:24.946Z,5.57
2019-03-04T03:06:57.050Z,5.71
2019-03-04T03:09:28.671Z,5.73
2019-03-04T03:12:00.464Z,5.76
2019-03-04T03:14:32.121Z,5.73
2019-03-04T03:17:05.095Z,5.60
2019-03-04T03:19:36.842Z,5.70
2019-03-04T03:22:08.677Z,5.67
2019-03-04T03:24:40.483Z,5.67
2019-03-04T03:27:12.729Z,5.90
2019-03-04T03:29:44.443Z,6.20
2019-03-04T03:32:16.264Z,6.36
2019-03-04T03:34:47.848Z,6.48
2019-03-04T03:37:19.525Z,6.79
2019-03-04T03:39:51.250Z,7.02
2019-03-04T03:42:23.112Z,7.19
2019-03-04T03:44:54.914Z,7.23
2019-03-04T03:47:26.609Z,7.28
2019-03-04T03:49:58.750Z,7.40
2019-03-04T03:52:30.373Z,7.38
2019-03-04T03:55:02.030Z,7.29
2019-03-04T03:57:33.786Z,7.27
2019-03-04T04:00:07.240Z,7.32
2019-03-04T04:02:39.087Z,7.28
2019-03-04T04:05:10.982Z,7.19
2019-03-04T04:07:42.854Z,7.20
2019-03-04T04:10:15.154Z,7.21
2019-03-04T04:12:47.098Z,7.22
2019-03-04T04:15:19.256Z,7.20
2019-03-04T04:17:50.820Z,7.10
2019-03-04T04:20:22.583Z,7.12
2019-03-04T04:22:54.283Z,6.95
2019-03-04T04:25:26.123Z,6.94
2019-03-04T04:27:57.982Z,6.89
2019-03-04T04:30:31.432Z,6.94
2019-03-04T04:33:03.490Z,7.09
2019-03-04T04:35:35.428Z,7.03
2019-03-04T04:38:07.002Z,7.13
2019-03-04T04:40:38.819Z,7.16
2019-03-04T04:43:10.616Z,7.09
2019-03-04T04:45:42.378Z,6.95
2019-03-04T04:48:14.081Z,6.89
2019-03-04T04:50:45.685Z,6.88
2019-03-04T04:53:17.319Z,6.93
2019-03-04T04:55:49.063Z,7.09
2019-03-04T04:58:20.756Z,7.16
2019-03-04T05:00:53.080Z,7.17
2019-03-04T05:03:24.753Z,7.21
2019-03-04T05:05:56.400Z,7.00
2019-03-04T05:08:27.981Z,6.97
2019-03-04T05:10:59.681Z,6.74
2019-03-04T05:13:31.593Z,6.59
2019-03-04T05:16:03.490Z,6.90
2019-03-04T05:18:35.107Z,6.94
2019-03-04T05:21:06.855Z,6.99
2019-03-04T05:23:38.538Z,6.99
2019-03-04T05:26:10.390Z,6.92
2019-03-04T05:28:42.383Z,6.87
2019-03-04T05:31:14.017Z,6.85
2019-03-04T05:33:45.604Z,6.88
2019-03-04T05:36:17.286Z,6.92
2019-03-04T05:38:48.952Z,6.96
2019-03-04T05:41:20.630Z,7.03
2019-03-04T05:43:52.576Z,7.07
2019-03-04T05:46:24.270Z,7.11
2019-03-04T05:48:56.015Z,7.08
2019-03-04T05:51:27.652Z,7.08
2019-03-04T05:53:59.300Z,7.07
2019-03-04T05:56:30.954Z,7.06
2019-03-04T05:59:02.759Z,7.10
2019-03-04T06:01:36.859Z,7.18
2019-03-04T06:04:13.683Z,7.23
2019-03-04T06:06:55.272Z,7.25
2019-03-04T06:09:27.253Z,7.30
2019-03-04T06:11:58.892Z,7.33
2019-03-04T06:14:30.880Z,7.38
2019-03-04T06:17:02.695Z,7.42
2019-03-04T06:19:34.798Z,7.33
2019-03-04T06:22:07.126Z,7.31
2019-03-04T06:24:38.639Z,7.46
2019-03-04T06:27:10.822Z,7.46
2019-03-04T06:29:42.808Z,7.57
2019-03-04T06:32:14.606Z,7.70
2019-03-04T06:34:46.338Z,7.52
2019-03-04T06:37:17.958Z,7.47
2019-03-04T06:39:50.236Z,7.45
2019-03-04T06:42:22.061Z,7.62
2019-03-04T06:44:53.969Z,7.77
2019-03-04T06:47:25.617Z,7.73
2019-03-04T06:49:57.205Z,7.74
2019-03-04T06:52:29.342Z,7.90
2019-03-04T06:55:22.572Z,7.88
2019-03-04T06:57:55.700Z,8.07
2019-03-04T07:00:57.871Z,8.27
2019-03-04T07:03:46.602Z,8.26
2019-03-04T07:06:18.278Z,8.21
2019-03-04T07:09:17.235Z,8.51
2019-03-04T07:11:53.704Z,8.58
2019-03-04T07:14:25.575Z,8.47
2019-03-04T07:16:57.298Z,8.41
2019-03-04T07:19:31.437Z,8.50
2019-03-04T07:22:03.395Z,8.64
2019-03-04T07:24:35.010Z,8.72
2019-03-04T07:27:06.788Z,8.72
2019-03-04T07:29:38.488Z,8.57
2019-03-04T07:32:10.355Z,8.48
2019-03-04T07:34:42.400Z,8.47
2019-03-04T07:37:17.002Z,8.51
2019-03-04T07:39:48.630Z,8.80
2019-03-04T07:42:21.474Z,9.15
2019-03-04T07:44:54.477Z,9.27
2019-03-04T07:47:26.406Z,9.33
2019-03-04T07:49:58.120Z,9.67
2019-03-04T07:52:30.192Z,9.47
2019-03-04T07:55:02.325Z,9.55
2019-03-04T07:57:34.583Z,9.87
2019-03-04T08:00:07.157Z,10.35
2019-03-04T08:02:39.142Z,10.59
2019-03-04T08:05:11.460Z,10.08
2019-03-04T08:07:49.485Z,9.36
2019-03-04T08:11:33.863Z,9.57
2019-03-04T08:14:06.268Z,9.63
2019-03-04T08:16:38.430Z,10.15
2019-03-04T08:19:10.303Z,10.94
2019-03-04T08:21:42.679Z,11.23
2019-03-04T08:24:14.682Z,10.93
2019-03-04T08:26:46.512Z,11.69
2019-03-04T08:29:18.500Z,12.28
2019-03-04T08:31:50.201Z,12.25
2019-03-04T08:34:30.725Z,12.20
2019-03-04T08:36:56.179Z,11.65
2019-03-04T08:39:30.218Z,12.30
2019-03-04T08:42:02.541Z,13.18
2019-03-04T08:44:34.310Z,13.73
2019-03-04T08:47:06.712Z,12.82
2019-03-04T08:49:38.983Z,12.80
2019-03-04T08:52:11.182Z,12.30
2019-03-04T08:54:43.673Z,12.18
2019-03-04T08:57:15.864Z,12.52
2019-03-04T08:59:48.373Z,14.46
2019-03-04T09:02:20.105Z,15.88
2019-03-04T09:04:52.286Z,18.38
2019-03-04T09:07:24.028Z,17.59
2019-03-04T09:09:55.510Z,17.06
2019-03-04T09:12:28.000Z,17.41
2019-03-04T09:15:00.322Z,17.99
2019-03-04T09:17:33.142Z,17.03
2019-03-04T09:20:05.947Z,17.42
2019-03-04T09:22:37.784Z,16.58
2019-03-04T09:25:14.837Z,17.22
2019-03-04T09:27:48.280Z,17.68
2019-03-04T09:30:22.143Z,15.81
2019-03-04T09:32:53.991Z,15.00
2019-03-04T09:35:26.000Z,14.31
2019-03-04T09:37:57.954Z,13.87
2019-03-04T09:40:31.531Z,13.34
2019-03-04T09:43:03.169Z,12.92
2019-03-04T09:45:38.766Z,12.87
2019-03-04T09:48:08.260Z,13.14
2019-03-04T09:50:39.983Z,13.04
2019-03-04T09:53:11.705Z,13.42
2019-03-04T09:55:44.437Z,13.19
2019-03-04T09:58:17.083Z,13.47
2019-03-04T10:01:26.862Z,13.67
2019-03-04T10:04:32.159Z,13.77
2019-03-04T10:08:02.984Z,13.25
2019-03-04T10:11:39.245Z,12.87
2019-03-04T10:15:25.280Z,13.06
2019-03-04T10:19:07.655Z,12.93
2019-03-04T10:22:16.117Z,12.96
2019-03-04T10:25:16.876Z,12.98
2019-03-04T10:28:46.389Z,12.75
2019-03-04T10:31:59.368Z,12.25
2019-03-04T10:35:11.450Z,12.41
2019-03-04T10:38:30.279Z,12.83
2019-03-04T10:41:47.881Z,12.98
2019-03-04T10:44:55.325Z,13.66
2019-03-04T10:47:27.154Z,14.51
2019-03-04T10:49:59.034Z,14.25
2019-03-04T10:52:31.235Z,14.64
2019-03-04T10:55:03.162Z,15.20
2019-03-04T10:57:35.145Z,15.53
2019-03-04T11:00:15.479Z,16.75
2019-03-04T11:02:47.360Z,17.47
2019-03-04T11:05:19.750Z,16.96
2019-03-04T11:07:51.516Z,15.72
2019-03-04T11:10:23.276Z,15.49
2019-03-04T11:12:55.682Z,15.06
2019-03-04T11:15:28.125Z,15.49
2019-03-04T11:18:00.560Z,16.06
2019-03-04T11:20:32.563Z,16.78
2019-03-04T11:23:04.730Z,16.28
2019-03-04T11:25:36.672Z,18.22
2019-03-04T11:28:08.538Z,17.09
2019-03-04T11:30:40.829Z,18.29
2019-03-04T11:33:12.629Z,16.50
2019-03-04T11:35:44.429Z,16.24
2019-03-04T11:38:42.664Z,16.19
2019-03-04T11:41:21.901Z,16.21
2019-03-04T11:43:53.859Z,16.29
2019-03-04T11:46:25.705Z,18.21
2019-03-04T11:48:57.495Z,16.49
2019-03-04T11:51:29.287Z,16.48
2019-03-04T11:54:01.807Z,17.33
2019-03-04T11:56:37.084Z,18.77
2019-03-04T12:07:25.356Z,18.15
2019-03-04T12:09:57.450Z,17.83
2019-03-04T12:12:29.410Z,17.14
2019-03-04T12:15:01.606Z,16.63
2019-03-04T12:17:33.831Z,17.91
2019-03-04T12:20:06.686Z,17.08
2019-03-04T12:22:38.603Z,16.98
2019-03-04T12:25:13.660Z,16.47
2019-03-04T12:27:47.718Z,16.56
2019-03-04T12:30:20.655Z,16.74
2019-03-04T12:32:52.545Z,16.58
2019-03-04T12:35:24.423Z,16.98
2019-03-04T12:38:03.187Z,16.44
2019-03-04T12:40:35.062Z,15.99
2019-03-04T12:43:06.898Z,15.96
2019-03-04T12:45:38.755Z,16.04
2019-03-04T12:48:11.520Z,15.70
2019-03-04T12:50:43.208Z,15.59
2019-03-04T12:53:14.930Z,16.04
2019-03-04T12:55:46.961Z,16.26
2019-03-04T12:58:19.216Z,15.82
2019-03-04T13:00:50.882Z,16.43
2019-03-04T13:03:26.735Z,16.35
2019-03-04T13:05:58.463Z,16.46
2019-03-04T13:08:30.247Z,16.59
2019-03-04T13:11:02.043Z,16.09
2019-03-04T13:13:34.285Z,16.01
2019-03-04T13:16:06.433Z,16.06
2019-03-04T13:18:38.159Z,16.62
2019-03-04T13:21:10.649Z,17.09
2019-03-04T13:23:43.365Z,17.31
2019-03-04T13:26:15.209Z,15.99
2019-03-04T13:28:47.647Z,16.48
2019-03-04T13:31:19.341Z,16.86
2019-03-04T13:33:51.273Z,16.86
2019-03-04T13:36:23.134Z,16.32
2019-03-04T13:38:55.557Z,16.75
2019-03-04T13:41:27.336Z,17.06
2019-03-04T13:43:59.213Z,17.41
2019-03-04T13:46:31.100Z,18.65
2019-03-04T13:49:02.960Z,17.56
2019-03-04T13:51:35.088Z,17.63
2019-03-04T13:54:07.476Z,18.33
2019-03-04T13:56:40.100Z,17.94
2019-03-04T13:59:12.873Z,17.54
2019-03-04T14:01:44.436Z,16.84
2019-03-04T14:04:16.058Z,16.71
2019-03-04T14:06:47.918Z,16.50
2019-03-04T14:09:21.754Z,16.18
2019-03-04T14:11:53.633Z,15.95
2019-03-04T14:14:25.776Z,15.95
2019-03-04T14:16:58.080Z,15.84
2019-03-04T14:19:30.238Z,15.64
2019-03-04T14:22:02.334Z,15.70
2019-03-04T14:24:35.271Z,15.86
2019-03-04T14:27:07.972Z,16.06
2019-03-04T14:29:39.967Z,15.85
2019-03-04T14:32:11.592Z,15.82
2019-03-04T14:34:43.891Z,15.62
2019-03-04T14:37:18.207Z,16.70
2019-03-04T14:39:50.361Z,17.60
2019-03-04T14:42:22.662Z,17.21
2019-03-04T14:44:54.597Z,17.37
2019-03-04T14:47:26.411Z,17.59
2019-03-04T14:50:09.203Z,17.03
2019-03-04T14:52:33.466Z,16.04
2019-03-04T14:55:05.439Z,16.41
2019-03-04T14:57:37.604Z,15.97
2019-03-04T15:00:25.646Z,16.35
2019-03-04T15:02:57.719Z,16.22
2019-03-04T15:05:29.782Z,16.16
2019-03-04T15:08:01.679Z,16.01
2019-03-04T15:10:34.896Z,16.06
2019-03-04T15:13:07.189Z,16.00
2019-03-04T15:15:39.493Z,15.64
2019-03-04T15:18:11.809Z,15.35
2019-03-04T15:20:46.442Z,15.71
2019-03-04T15:23:18.878Z,15.70
2019-03-04T15:25:50.579Z,15.73
2019-03-04T15:28:28.254Z,15.77
2019-03-04T15:31:04.169Z,15.71
2019-03-04T15:33:38.358Z,15.23
2019-03-04T15:36:09.955Z,15.37
2019-03-04T15:38:42.345Z,15.24
2019-03-04T15:41:14.090Z,15.43
2019-03-04T15:43:45.959Z,15.13
2019-03-04T15:46:18.561Z,14.92
2019-03-04T15:48:50.959Z,14.94
2019-03-04T15:51:23.126Z,15.00
2019-03-04T15:53:55.847Z,14.97
2019-03-04T15:56:28.097Z,14.81
2019-03-04T15:59:00.294Z,15.01
2019-03-04T16:01:32.259Z,14.90
2019-03-04T16:04:04.199Z,14.85
2019-03-04T16:06:36.316Z,14.48
2019-03-04T16:09:16.145Z,14.35
2019-03-04T16:11:48.231Z,14.45
2019-03-04T16:14:20.280Z,14.22
2019-03-04T16:16:52.795Z,14.05
2019-03-04T16:19:24.903Z,13.99
2019-03-04T16:21:56.834Z,14.01
2019-03-04T16:24:28.774Z,13.92
2019-03-04T16:27:09.182Z,13.89
2019-03-04T16:29:41.018Z,13.70
2019-03-04T16:32:14.686Z,13.64
2019-03-04T16:34:46.397Z,13.56
2019-03-04T16:37:18.567Z,13.49
2019-03-04T16:39:50.880Z,13.43
2019-03-04T16:42:22.683Z,13.29
2019-03-04T16:44:54.601Z,13.29
2019-03-04T16:47:27.005Z,13.18
2019-03-04T16:49:58.927Z,13.13
2019-03-04T16:52:32.662Z,13.03
2019-03-04T16:55:05.700Z,13.07
2019-03-04T16:57:37.930Z,13.01
2019-03-04T17:00:13.108Z,12.85
2019-03-04T17:02:46.138Z,12.78
2019-03-04T17:05:19.240Z,12.72
2019-03-04T17:07:52.121Z,12.72
2019-03-04T17:10:24.268Z,12.63
2019-03-04T17:12:56.172Z,12.63
2019-03-04T17:15:28.110Z,12.52
2019-03-04T17:17:59.789Z,12.53
2019-03-04T17:20:31.908Z,12.47
2019-03-04T17:23:04.278Z,12.41
2019-03-04T17:25:36.996Z,12.50
2019-03-04T17:28:09.878Z,12.43
2019-03-04T17:30:43.035Z,12.39
2019-03-04T17:33:15.775Z,12.41
2019-03-04T17:35:48.163Z,12.24
2019-03-04T17:38:20.964Z,12.18
2019-03-04T17:40:56.404Z,12.06
2019-03-04T17:43:28.501Z,12.00
2019-03-04T17:46:01.667Z,12.00
2019-03-04T17:48:33.797Z,12.06
2019-03-04T17:51:06.295Z,12.13
2019-03-04T17:53:38.805Z,12.14
2019-03-04T17:56:11.020Z,12.04
2019-03-04T17:58:43.708Z,11.94
2019-03-04T18:01:15.961Z,11.96
2019-03-04T18:03:48.906Z,12.05
2019-03-04T18:06:20.907Z,11.94
2019-03-04T18:08:53.145Z,11.82
2019-03-04T18:11:25.653Z,11.80
2019-03-04T18:13:57.834Z,11.86
2019-03-04T18:16:30.120Z,11.97
2019-03-04T18:19:03.494Z,11.99
2019-03-04T18:21:37.701Z,12.02
2019-03-04T18:24:09.872Z,12.02
2019-03-04T18:27:17.592Z,12.06
2019-03-04T18:30:50.247Z,12.02
2019-03-04T18:34:32.366Z,12.03
2019-03-04T18:37:58.582Z,12.02
2019-03-04T18:41:49.288Z,12.03
2019-03-04T18:45:29.887Z,12.00
2019-03-04T18:48:56.523Z,11.93
2019-03-04T18:51:32.909Z,11.87
2019-03-04T18:54:11.872Z,11.88
2019-03-04T18:56:46.119Z,11.85
2019-03-04T18:59:18.370Z,11.94
2019-03-04T19:01:51.027Z,11.91
2019-03-04T19:04:23.298Z,11.81
2019-03-04T19:06:56.470Z,12.01
2019-03-04T19:09:33.011Z,11.93
2019-03-04T19:12:06.177Z,11.96
2019-03-04T19:14:39.690Z,11.96
2019-03-04T19:17:11.904Z,12.07
2019-03-04T19:19:45.787Z,12.05
2019-03-04T19:22:20.297Z,12.19
2019-03-04T19:24:53.250Z,12.03
2019-03-04T19:27:25.061Z,12.16
2019-03-04T19:29:57.760Z,12.02
2019-03-04T19:32:33.773Z,12.13
2019-03-04T19:35:06.963Z,12.17
2019-03-04T19:37:39.515Z,12.16
2019-03-04T19:40:12.609Z,12.13
2019-03-04T19:42:47.173Z,12.10
2019-03-04T19:45:20.748Z,12.11
2019-03-04T19:47:54.836Z,12.13
2019-03-04T19:50:27.122Z,12.20
2019-03-04T19:52:59.347Z,12.24
2019-03-04T19:55:31.576Z,12.19
2019-03-04T19:58:04.073Z,12.24
2019-03-04T20:00:36.302Z,12.29
2019-03-04T20:03:10.218Z,12.31
2019-03-04T20:05:48.231Z,12.36
2019-03-04T20:08:21.644Z,12.42
2019-03-04T20:10:54.764Z,12.45
2019-03-04T20:13:27.863Z,12.43
2019-03-04T20:16:00.238Z,12.46
2019-03-04T20:18:32.281Z,12.48
2019-03-04T20:21:05.895Z,12.48
2019-03-04T20:23:39.258Z,12.46
2019-03-04T20:26:11.482Z,12.51
2019-03-04T20:28:45.697Z,12.47
2019-03-04T20:31:18.502Z,12.52
2019-03-04T20:33:51.115Z,12.46
2019-03-04T20:36:23.439Z,12.58
2019-03-04T20:38:55.671Z,12.57
2019-03-04T20:41:28.143Z,12.56
2019-03-04T20:44:00.405Z,12.56
2019-03-04T20:46:32.381Z,12.53
2019-03-04T20:49:04.649Z,12.51
2019-03-04T20:51:38.430Z,12.56
2019-03-04T20:54:11.114Z,12.59
2019-03-04T20:56:43.221Z,12.63
2019-03-04T20:59:16.839Z,12.72
2019-03-04T21:01:49.703Z,12.71
2019-03-04T21:04:21.789Z,12.77
2019-03-04T21:06:53.977Z,12.70
2019-03-04T21:09:26.825Z,12.78
2019-03-04T21:11:59.007Z,12.81
2019-03-04T21:14:31.122Z,12.79
2019-03-04T21:17:02.813Z,12.86
2019-03-04T21:19:34.623Z,12.85
2019-03-04T21:22:06.755Z,12.84
2019-03-04T21:24:39.180Z,12.81
2019-03-04T21:27:11.492Z,12.82
2019-03-04T21:30:31.842Z,12.81
2019-03-04T21:33:21.889Z,12.78
2019-03-04T21:37:02.438Z,12.88
2019-03-04T21:39:36.776Z,12.85
2019-03-04T21:42:38.286Z,12.84
2019-03-04T21:45:38.381Z,12.88
2019-03-04T21:48:32.383Z,12.87
2019-03-04T21:51:38.201Z,12.82
2019-03-04T21:54:08.811Z,12.88
2019-03-04T21:57:23.239Z,12.87
2019-03-04T21:59:55.046Z,12.77
2019-03-04T22:02:45.803Z,12.80
2019-03-04T22:05:18.401Z,12.80
2019-03-04T22:07:50.756Z,12.82
2019-03-04T22:10:22.602Z,12.85
2019-03-04T22:12:54.525Z,12.83
2019-03-04T22:15:27.718Z,12.79
2019-03-04T22:18:00.074Z,12.68
2019-03-04T22:20:32.012Z,12.67
2019-03-04T22:23:04.015Z,12.48
2019-03-04T22:25:36.074Z,12.46
2019-03-04T22:28:08.211Z,12.39
2019-03-04T22:30:40.262Z,12.34
2019-03-04T22:33:11.903Z,12.27
2019-03-04T22:35:43.612Z,12.36
2019-03-04T22:38:16.154Z,12.23
2019-03-04T22:40:49.351Z,12.28
2019-03-04T22:43:21.010Z,12.18
2019-03-04T22:45:52.907Z,12.23
2019-03-04T22:48:25.165Z,12.26
2019-03-04T22:50:56.977Z,12.15
2019-03-04T22:53:28.896Z,12.13
2019-03-04T22:56:00.864Z,12.22
2019-03-04T22:58:32.904Z,12.22
2019-03-04T23:01:39.978Z,12.23
2019-03-04T23:05:13.807Z,12.20
2019-03-04T23:07:53.312Z,12.10
2019-03-04T23:10:59.712Z,11.88
2019-03-04T23:14:05.131Z,11.91
2019-03-04T23:16:37.499Z,11.73
2019-03-04T23:19:09.203Z,11.86
2019-03-04T23:21:43.365Z,12.03
2019-03-04T23:24:14.900Z,12.13
2019-03-04T23:26:46.573Z,12.16
2019-03-04T23:29:18.328Z,12.10
2019-03-04T23:31:50.560Z,12.15
2019-03-04T23:34:22.208Z,12.20
2019-03-04T23:36:53.817Z,12.18
2019-03-04T23:39:25.452Z,12.07
2019-03-04T23:41:57.534Z,12.15
2019-03-04T23:44:29.345Z,12.08
2019-03-04T23:47:01.004Z,12.01
2019-03-04T23:49:33.101Z,11.94
2019-03-04T23:52:05.258Z,11.89
2019-03-04T23:54:37.371Z,11.86
2019-03-04T23:57:09.285Z,11.85
2019-03-04T23:59:42.593Z,11.83
